createdAt,value
2019-03-23T00:00:54.616Z,20.53
2019-03-23T00:03:36.440Z,21.57
2019-03-23T00:06:18.501Z,20.20
2019-03-23T00:09:00.521Z,18.90
2019-03-23T00:11:42.378Z,21.80
2019-03-23T00:14:24.188Z,22.63
2019-03-23T00:17:06.282Z,22.00
2019-03-23T00:19:48.368Z,21.03
2019-03-23T00:22:30.455Z,17.73
2019-03-23T00:25:12.439Z,20.70
2019-03-23T00:27:54.470Z,19.17
2019-03-23T00:30:36.241Z,20.20
2019-03-23T00:33:18.474Z,22.20
2019-03-23T00:36:01.085Z,21.73
2019-03-23T00:38:43.251Z,20.60
2019-03-23T00:41:25.627Z,21.20
2019-03-23T00:44:07.904Z,22.40
2019-03-23T00:46:50.339Z,25.07
2019-03-23T00:49:32.586Z,20.93
2019-03-23T00:52:14.730Z,21.00
2019-03-23T00:54:57.286Z,19.60
2019-03-23T00:57:39.907Z,20.30
2019-03-23T01:00:22.518Z,24.23
2019-03-23T01:03:04.982Z,20.20
2019-03-23T01:05:47.461Z,18.30
2019-03-23T01:08:29.746Z,20.00
2019-03-23T01:11:11.656Z,19.30
2019-03-23T01:13:54.201Z,21.93
2019-03-23T01:16:36.567Z,19.10
2019-03-23T01:19:18.498Z,19.90
2019-03-23T01:22:00.587Z,19.40
2019-03-23T01:24:43.737Z,19.37
2019-03-23T01:27:25.746Z,21.30
2019-03-23T01:30:08.253Z,20.63
2019-03-23T01:32:50.747Z,20.40
2019-03-23T01:35:32.517Z,20.50
2019-03-23T01:38:14.571Z,21.63
2019-03-23T01:40:56.704Z,20.03
2019-03-23T01:43:39.084Z,20.90
2019-03-23T01:46:21.087Z,20.20
2019-03-23T01:49:03.564Z,18.53
2019-03-23T01:51:45.504Z,25.03
2019-03-23T01:54:27.387Z,20.80
2019-03-23T01:57:09.656Z,17.93
2019-03-23T01:59:51.664Z,21.93
2019-03-23T02:02:34.047Z,22.80
2019-03-23T02:05:16.478Z,23.00
2019-03-23T02:07:58.572Z,22.37
2019-03-23T02:10:41.950Z,21.70
2019-03-23T02:13:23.904Z,22.13
2019-03-23T02:16:05.744Z,19.77
2019-03-23T02:18:48.178Z,19.80
2019-03-23T02:21:30.407Z,20.97
2019-03-23T02:24:11.363Z,21.43
2019-03-23T02:30:31.254Z,22.30
2019-03-23T02:40:26.387Z,20.80
2019-03-23T02:43:35.712Z,23.57
2019-03-23T02:46:45.009Z,25.50
2019-03-23T02:53:10.389Z,22.20
2019-03-23T02:56:19.663Z,23.80
2019-03-23T02:59:29.040Z,22.90
2019-03-23T03:02:18.919Z,23.70
2019-03-23T03:05:28.201Z,22.83
2019-03-23T03:11:46.357Z,24.50
2019-03-23T03:14:36.215Z,24.40
2019-03-23T03:17:45.579Z,21.70
2019-03-23T03:20:54.920Z,20.83
2019-03-23T03:23:56.137Z,23.90
2019-03-23T03:26:38.178Z,23.10
2019-03-23T03:29:19.985Z,21.67
2019-03-23T03:32:02.115Z,21.80
2019-03-23T03:34:44.698Z,21.80
2019-03-23T03:37:26.451Z,24.53
2019-03-23T03:40:08.326Z,21.23
2019-03-23T03:42:50.836Z,22.10
2019-03-23T03:45:33.006Z,22.90
2019-03-23T03:48:14.955Z,21.00
2019-03-23T03:50:56.717Z,24.90
2019-03-23T03:53:38.990Z,22.83
2019-03-23T03:56:20.998Z,22.10
2019-03-23T03:59:03.093Z,24.50
2019-03-23T04:01:45.516Z,23.43
2019-03-23T04:04:27.759Z,24.90
2019-03-23T04:07:09.779Z,23.90
2019-03-23T04:09:52.330Z,23.37
2019-03-23T04:12:34.672Z,23.50
2019-03-23T04:15:17.110Z,22.23
2019-03-23T04:17:59.721Z,21.20
2019-03-23T04:20:41.785Z,24.23
2019-03-23T04:23:23.824Z,22.77
2019-03-23T04:26:06.181Z,21.53
2019-03-23T04:28:48.416Z,24.07
2019-03-23T04:31:30.539Z,23.80
2019-03-23T04:34:12.638Z,21.43
2019-03-23T04:36:55.233Z,23.00
2019-03-23T04:39:36.226Z,21.93
2019-03-23T04:42:26.446Z,23.10
2019-03-23T04:45:17.131Z,24.00
2019-03-23T04:47:48.246Z,27.00
2019-03-23T04:50:19.338Z,22.37
2019-03-23T04:52:50.430Z,23.30
2019-03-23T04:55:21.506Z,24.00
2019-03-23T04:57:52.619Z,23.77
2019-03-23T05:00:23.647Z,24.23
2019-03-23T05:02:54.699Z,26.33
2019-03-23T05:05:25.869Z,24.07
2019-03-23T05:07:57.325Z,27.13
2019-03-23T05:10:28.358Z,22.40
2019-03-23T05:12:59.393Z,27.90
2019-03-23T05:15:30.393Z,23.87
2019-03-23T05:18:01.469Z,23.50
2019-03-23T05:20:33.015Z,23.43
2019-03-23T05:23:04.167Z,22.33
2019-03-23T05:25:35.249Z,23.30
2019-03-23T05:28:06.306Z,21.90
2019-03-23T05:30:37.727Z,27.60
2019-03-23T05:33:08.784Z,24.40
2019-03-23T05:35:39.901Z,28.83
2019-03-23T05:38:10.967Z,23.00
2019-03-23T05:40:41.999Z,28.73
2019-03-23T05:43:13.059Z,26.17
2019-03-23T05:45:44.253Z,27.90
2019-03-23T05:48:15.568Z,21.93
2019-03-23T05:50:46.944Z,23.83
2019-03-23T05:53:18.900Z,23.37
2019-03-23T05:55:49.958Z,25.43
2019-03-23T05:58:20.991Z,26.37
2019-03-23T06:00:52.015Z,24.63
2019-03-23T06:03:23.129Z,24.20
2019-03-23T06:05:54.204Z,25.00
2019-03-23T06:08:25.246Z,24.30
2019-03-23T06:10:56.326Z,24.40
2019-03-23T06:13:27.371Z,25.37
2019-03-23T06:15:58.709Z,26.67
2019-03-23T06:18:29.817Z,26.43
2019-03-23T06:21:00.843Z,26.00
2019-03-23T06:23:31.904Z,24.67
2019-03-23T06:26:02.969Z,24.67
2019-03-23T06:28:34.266Z,26.07
2019-03-23T06:31:05.295Z,24.80
2019-03-23T06:33:36.498Z,26.33
2019-03-23T06:36:07.555Z,26.87
2019-03-23T06:39:05.096Z,24.50
2019-03-23T06:42:08.462Z,23.67
2019-03-23T06:51:49.415Z,24.73
2019-03-23T07:01:23.685Z,27.50
2019-03-23T07:04:32.958Z,26.20
2019-03-23T07:10:56.917Z,27.40
2019-03-23T07:23:31.109Z,27.63
2019-03-23T07:26:40.442Z,29.20
2019-03-23T07:35:51.816Z,30.43
2019-03-23T07:38:33.710Z,29.10
2019-03-23T07:41:16.575Z,27.87
2019-03-23T07:43:58.431Z,28.33
2019-03-23T07:46:40.563Z,29.40
2019-03-23T07:49:22.717Z,27.60
2019-03-23T07:52:04.978Z,27.43
2019-03-23T07:54:46.829Z,28.40
2019-03-23T07:57:28.810Z,29.20
2019-03-23T08:00:10.833Z,27.70
2019-03-23T08:02:52.891Z,28.80
2019-03-23T08:05:35.366Z,30.07
2019-03-23T08:08:17.881Z,27.47
2019-03-23T08:11:00.312Z,28.00
2019-03-23T08:13:42.224Z,26.80
2019-03-23T08:16:24.242Z,29.70
2019-03-23T08:19:06.181Z,25.47
2019-03-23T08:21:48.397Z,29.13
2019-03-23T08:24:30.288Z,30.73
2019-03-23T08:27:12.469Z,27.93
2019-03-23T08:29:54.326Z,26.53
2019-03-23T08:32:36.583Z,28.10
2019-03-23T08:35:18.309Z,32.73
2019-03-23T08:38:00.300Z,27.13
2019-03-23T08:40:42.468Z,30.70
2019-03-23T08:43:25.036Z,28.90
2019-03-23T08:46:07.127Z,29.67
2019-03-23T08:48:49.319Z,30.53
2019-03-23T08:51:32.717Z,30.57
2019-03-23T08:54:15.043Z,30.00
2019-03-23T08:56:57.887Z,29.93
2019-03-23T08:59:40.984Z,31.43
2019-03-23T09:02:24.298Z,32.13
2019-03-23T09:05:06.818Z,29.47
2019-03-23T09:07:49.441Z,30.20
2019-03-23T09:10:31.481Z,27.83
2019-03-23T09:13:15.152Z,31.90
2019-03-23T09:15:58.023Z,29.30
2019-03-23T09:18:40.221Z,31.00
2019-03-23T09:21:22.956Z,28.83
2019-03-23T09:24:05.487Z,35.40
2019-03-23T09:26:47.831Z,33.60
2019-03-23T09:29:30.298Z,28.73
2019-03-23T09:32:12.500Z,30.40
2019-03-23T09:34:54.540Z,28.97
2019-03-23T09:37:38.142Z,29.97
2019-03-23T09:40:20.274Z,28.17
2019-03-23T09:43:03.673Z,30.00
2019-03-23T09:45:45.969Z,29.83
2019-03-23T09:48:27.879Z,29.00
2019-03-23T09:51:10.114Z,30.43
2019-03-23T09:53:52.212Z,29.30
2019-03-23T09:56:34.192Z,31.37
2019-03-23T09:59:16.065Z,30.80
2019-03-23T10:01:58.620Z,31.37
2019-03-23T10:04:40.399Z,29.93
2019-03-23T10:07:22.456Z,31.63
2019-03-23T10:10:04.759Z,31.37
2019-03-23T10:12:47.136Z,31.47
2019-03-23T10:15:29.283Z,33.67
2019-03-23T10:18:11.730Z,31.40
2019-03-23T10:20:53.586Z,31.80
2019-03-23T10:23:37.205Z,34.73
2019-03-23T10:26:19.183Z,29.93
2019-03-23T10:29:01.849Z,32.20
2019-03-23T10:31:43.983Z,34.50
2019-03-23T10:34:26.256Z,38.43
2019-03-23T10:37:08.306Z,33.97
2019-03-23T10:39:50.445Z,30.97
2019-03-23T10:42:32.718Z,32.57
2019-03-23T10:45:15.069Z,36.30
2019-03-23T10:50:39.488Z,32.20
2019-03-23T10:53:23.278Z,27.90
2019-03-23T10:56:06.567Z,30.87
2019-03-23T10:58:48.989Z,29.13
2019-03-23T11:01:31.357Z,26.40
2019-03-23T11:04:13.738Z,28.20
2019-03-23T11:06:56.039Z,27.27
2019-03-23T11:09:38.325Z,30.80
2019-03-23T11:12:20.368Z,26.93
2019-03-23T11:15:02.469Z,28.37
2019-03-23T11:17:44.837Z,28.77
2019-03-23T11:20:26.903Z,28.17
2019-03-23T11:23:09.020Z,27.97
2019-03-23T11:25:51.503Z,29.90
2019-03-23T11:28:33.771Z,31.57
2019-03-23T11:31:16.039Z,29.03
2019-03-23T11:33:59.088Z,27.67
2019-03-23T11:36:41.144Z,30.73
2019-03-23T11:39:23.252Z,26.57
2019-03-23T11:42:05.563Z,27.87
2019-03-23T11:44:48.430Z,29.33
2019-03-23T11:47:30.588Z,28.47
2019-03-23T11:50:12.931Z,30.37
2019-03-23T11:55:45.121Z,27.70
2019-03-23T11:58:27.444Z,32.03
2019-03-23T12:01:09.764Z,31.33
2019-03-23T12:03:52.983Z,32.87
2019-03-23T12:06:37.919Z,29.60
2019-03-23T12:09:19.825Z,28.43
2019-03-23T12:12:01.836Z,27.73
2019-03-23T12:14:44.140Z,31.53
2019-03-23T12:17:25.906Z,31.07
2019-03-23T12:20:07.922Z,30.63
2019-03-23T12:22:50.252Z,31.37
2019-03-23T12:25:32.105Z,28.43
2019-03-23T12:28:14.619Z,30.70
2019-03-23T12:30:56.609Z,30.33
2019-03-23T12:33:38.780Z,32.00
2019-03-23T12:36:20.769Z,30.83
2019-03-23T12:39:03.177Z,28.27
2019-03-23T12:41:45.149Z,28.47
2019-03-23T12:44:27.321Z,29.47
2019-03-23T12:47:09.325Z,31.90
2019-03-23T12:49:51.527Z,37.93
2019-03-23T12:52:34.451Z,38.47
2019-03-23T12:55:16.874Z,33.27
2019-03-23T12:57:59.433Z,32.23
2019-03-23T13:00:41.456Z,31.60
2019-03-23T13:03:23.354Z,25.90
2019-03-23T13:06:06.557Z,31.40
2019-03-23T13:08:49.343Z,34.53
2019-03-23T13:11:35.444Z,46.00
2019-03-23T13:14:15.701Z,42.63
2019-03-23T13:16:57.886Z,37.33
2019-03-23T13:19:40.532Z,42.57
2019-03-23T13:22:21.810Z,42.33
2019-03-23T13:28:27.561Z,45.07
2019-03-23T13:31:17.271Z,40.10
2019-03-23T13:34:26.686Z,36.20
2019-03-23T13:37:08.982Z,28.70
2019-03-23T13:39:51.406Z,32.83
2019-03-23T13:42:34.208Z,34.27
2019-03-23T13:45:16.423Z,31.30
2019-03-23T13:47:58.390Z,29.07
2019-03-23T13:50:40.330Z,32.43
2019-03-23T13:53:22.433Z,31.90
2019-03-23T13:56:04.696Z,27.00
2019-03-23T13:58:46.847Z,25.60
2019-03-23T14:01:28.888Z,28.73
2019-03-23T14:04:10.871Z,30.27
2019-03-23T14:06:53.047Z,29.07
2019-03-23T14:09:35.109Z,19.47
2019-03-23T14:12:17.423Z,16.00
2019-03-23T14:14:59.310Z,20.00
2019-03-23T14:17:41.508Z,21.77
2019-03-23T14:20:24.035Z,26.47
2019-03-23T14:23:05.822Z,27.73
2019-03-23T14:25:47.819Z,35.20
2019-03-23T14:28:30.017Z,34.53
2019-03-23T14:31:12.687Z,27.63
2019-03-23T14:33:54.777Z,24.33
2019-03-23T14:36:36.541Z,17.73
2019-03-23T14:39:18.673Z,19.70
2019-03-23T14:42:04.762Z,19.40
2019-03-23T14:44:44.601Z,25.10
2019-03-23T14:47:27.391Z,28.23
2019-03-23T14:50:09.964Z,32.20
2019-03-23T14:52:51.923Z,30.83
2019-03-23T14:55:34.045Z,29.70
2019-03-23T14:58:16.653Z,23.20
2019-03-23T15:00:59.013Z,26.37
2019-03-23T15:03:40.751Z,25.83
2019-03-23T15:06:23.163Z,28.27
2019-03-23T15:09:05.449Z,32.13
2019-03-23T15:11:47.695Z,34.43
2019-03-23T15:14:29.797Z,27.80
2019-03-23T15:17:12.284Z,18.97
2019-03-23T15:19:54.434Z,18.57
2019-03-23T15:22:36.621Z,16.77
2019-03-23T15:25:18.602Z,17.37
2019-03-23T15:28:00.341Z,15.53
2019-03-23T15:30:42.372Z,17.27
2019-03-23T15:33:24.167Z,17.50
2019-03-23T15:36:06.324Z,14.43
2019-03-23T15:38:48.862Z,15.87
2019-03-23T15:41:30.936Z,19.43
2019-03-23T15:44:12.805Z,20.97
2019-03-23T15:46:54.738Z,21.50
2019-03-23T15:49:36.593Z,15.33
2019-03-23T15:52:18.845Z,15.63
2019-03-23T15:55:03.163Z,13.30
2019-03-23T15:57:45.398Z,16.23
2019-03-23T16:00:27.552Z,16.23
2019-03-23T16:03:09.526Z,16.60
2019-03-23T16:05:51.505Z,17.33
2019-03-23T16:08:33.458Z,14.20
2019-03-23T16:11:15.269Z,16.03
2019-03-23T16:13:57.509Z,13.90
2019-03-23T16:16:39.353Z,13.33
2019-03-23T16:19:21.173Z,16.00
2019-03-23T16:22:03.583Z,20.70
2019-03-23T16:24:46.063Z,17.93
2019-03-23T16:27:28.096Z,21.27
2019-03-23T16:30:10.313Z,15.00
2019-03-23T16:32:52.922Z,15.47
2019-03-23T16:35:35.295Z,14.57
2019-03-23T16:38:17.372Z,18.70
2019-03-23T16:40:59.141Z,16.37
2019-03-23T16:43:41.088Z,19.17
2019-03-23T16:46:23.375Z,19.67
2019-03-23T16:49:05.367Z,26.27
2019-03-23T16:51:47.366Z,24.53
2019-03-23T16:54:29.699Z,22.98
2019-03-23T17:00:36.920Z,24.10
2019-03-23T17:03:18.971Z,26.63
2019-03-23T17:06:01.520Z,23.90
2019-03-23T17:08:43.881Z,25.13
2019-03-23T17:11:26.347Z,23.67
2019-03-23T17:14:08.345Z,22.93
2019-03-23T17:16:50.783Z,24.30
2019-03-23T17:19:33.371Z,26.30
2019-03-23T17:22:15.519Z,24.73
2019-03-23T17:24:57.855Z,21.03
2019-03-23T17:27:39.770Z,24.40
2019-03-23T17:30:21.980Z,26.43
2019-03-23T17:33:04.409Z,26.80
2019-03-23T17:35:46.375Z,26.20
2019-03-23T17:38:28.894Z,26.40
2019-03-23T17:41:11.040Z,28.10
2019-03-23T17:43:53.237Z,28.50
2019-03-23T17:46:35.254Z,29.17
2019-03-23T17:49:17.061Z,27.33
2019-03-23T17:51:59.333Z,30.00
2019-03-23T17:54:41.630Z,31.23
2019-03-23T17:57:23.971Z,29.63
2019-03-23T18:00:06.219Z,30.23
2019-03-23T18:02:48.175Z,30.93
2019-03-23T18:05:30.614Z,28.93
2019-03-23T18:08:13.737Z,27.53
2019-03-23T18:10:56.052Z,27.10
2019-03-23T18:13:38.573Z,27.33
2019-03-23T18:16:20.739Z,28.70
2019-03-23T18:19:03.370Z,25.77
2019-03-23T18:21:47.832Z,28.53
2019-03-23T18:24:29.516Z,30.60
2019-03-23T18:27:11.294Z,28.67
2019-03-23T18:29:53.378Z,33.00
2019-03-23T18:32:35.665Z,38.27
2019-03-23T18:35:18.037Z,40.70
2019-03-23T18:38:00.155Z,38.73
2019-03-23T18:40:42.090Z,40.97
2019-03-23T18:43:27.692Z,42.07
2019-03-23T18:46:08.948Z,43.00
2019-03-23T18:48:51.175Z,39.70
2019-03-23T18:51:34.032Z,39.00
2019-03-23T18:54:16.083Z,42.50
2019-03-23T18:56:59.463Z,44.47
2019-03-23T18:59:42.563Z,52.07
2019-03-23T19:02:24.387Z,43.73
2019-03-23T19:05:06.264Z,36.07
2019-03-23T19:07:48.490Z,33.17
2019-03-23T19:10:32.413Z,35.53
2019-03-23T19:16:00.954Z,37.53
2019-03-23T19:18:42.823Z,39.43
2019-03-23T19:21:25.410Z,35.87
2019-03-23T19:24:07.294Z,36.67
2019-03-23T19:26:49.473Z,34.37
2019-03-23T19:29:31.431Z,38.13
2019-03-23T19:32:13.537Z,32.83
2019-03-23T19:34:55.357Z,33.80
2019-03-23T19:37:39.019Z,33.90
2019-03-23T19:40:21.671Z,34.33
2019-03-23T19:43:03.648Z,36.67
2019-03-23T19:45:45.786Z,34.20
2019-03-23T19:48:27.826Z,33.70
2019-03-23T19:51:09.549Z,32.30
2019-03-23T19:53:51.707Z,35.23
2019-03-23T19:56:34.328Z,32.07
2019-03-23T19:59:16.285Z,33.60
2019-03-23T20:01:58.857Z,32.40
2019-03-23T20:04:41.045Z,32.33
2019-03-23T20:07:32.568Z,32.10
2019-03-23T20:10:07.141Z,32.33
2019-03-23T20:12:48.819Z,34.23
2019-03-23T20:15:31.124Z,37.07
2019-03-23T20:18:13.647Z,32.40
2019-03-23T20:20:55.817Z,32.70
2019-03-23T20:23:38.162Z,33.97
2019-03-23T20:26:20.241Z,33.37
2019-03-23T20:29:03.018Z,31.77
2019-03-23T20:31:45.610Z,35.50
2019-03-23T20:34:28.508Z,33.40
2019-03-23T20:37:10.503Z,30.10
2019-03-23T20:39:52.811Z,29.90
2019-03-23T20:42:35.190Z,33.20
2019-03-23T20:45:17.522Z,35.10
2019-03-23T20:47:59.560Z,33.60
2019-03-23T20:50:41.577Z,31.90
2019-03-23T20:53:23.602Z,34.80
2019-03-23T20:56:06.353Z,36.83
2019-03-23T20:58:47.987Z,37.00
2019-03-23T21:01:30.061Z,31.00
2019-03-23T21:04:11.821Z,32.27
2019-03-23T21:06:54.245Z,30.60
2019-03-23T21:09:36.427Z,33.53
2019-03-23T21:12:18.686Z,32.07
2019-03-23T21:15:02.707Z,30.13
2019-03-23T21:17:51.252Z,34.30
2019-03-23T21:20:29.393Z,33.47
2019-03-23T21:23:11.601Z,36.40
2019-03-23T21:25:53.892Z,36.03
2019-03-23T21:28:35.698Z,37.67
2019-03-23T21:31:17.361Z,34.10
2019-03-23T21:33:59.968Z,37.43
2019-03-23T21:36:41.826Z,31.57
2019-03-23T21:39:23.910Z,32.40
2019-03-23T21:42:06.201Z,28.97
2019-03-23T21:44:48.260Z,33.47
2019-03-23T21:47:30.084Z,29.77
2019-03-23T21:50:12.413Z,29.93
2019-03-23T21:52:54.640Z,30.27
2019-03-23T21:55:36.783Z,31.50
2019-03-23T21:58:19.279Z,29.90
2019-03-23T22:01:01.446Z,34.80
2019-03-23T22:03:43.556Z,33.40
2019-03-23T22:06:26.127Z,34.37
2019-03-23T22:09:08.227Z,32.93
2019-03-23T22:11:50.809Z,33.50
2019-03-23T22:14:41.353Z,30.50
2019-03-23T22:17:16.591Z,32.60
2019-03-23T22:19:58.411Z,30.10
2019-03-23T22:22:40.387Z,28.17
2019-03-23T22:25:23.081Z,28.53
2019-03-23T22:28:04.853Z,31.10
2019-03-23T22:30:46.855Z,33.00
2019-03-23T22:33:29.481Z,31.50
2019-03-23T22:36:11.544Z,30.37
2019-03-23T22:38:53.565Z,31.33
2019-03-23T22:41:36.161Z,34.77
2019-03-23T22:44:18.231Z,46.93
2019-03-23T22:47:00.178Z,52.67
2019-03-23T22:49:42.759Z,55.33
2019-03-23T22:52:25.058Z,51.63
2019-03-23T22:55:07.414Z,45.40
2019-03-23T22:57:49.478Z,40.10
2019-03-23T23:00:50.727Z,37.50
2019-03-23T23:03:32.828Z,31.93
2019-03-23T23:06:14.643Z,36.07
2019-03-23T23:08:56.746Z,33.40
2019-03-23T23:11:38.879Z,34.27
2019-03-23T23:14:21.051Z,32.43
2019-03-23T23:17:03.216Z,30.53
2019-03-23T23:19:45.277Z,33.37
2019-03-23T23:22:27.385Z,31.73
2019-03-23T23:25:09.747Z,31.80
2019-03-23T23:27:51.883Z,33.70
2019-03-23T23:30:33.897Z,37.07
2019-03-23T23:33:16.131Z,40.00
2019-03-23T23:35:58.321Z,43.23
2019-03-23T23:38:40.476Z,39.97
2019-03-23T23:41:22.497Z,38.20
2019-03-23T23:44:04.391Z,37.07
2019-03-23T23:46:46.781Z,35.67
2019-03-23T23:49:28.491Z,32.30
2019-03-23T23:52:10.466Z,39.90
2019-03-23T23:54:52.207Z,42.17
2019-03-23T23:57:34.230Z,47.57
